Tiempo atmosférico en la estación meteorológica de Baztan, Irurita, Navarra (183 m.)



Fecha
DESCASC
Temp. máxima en grados centígrados (hora)
DESCASC
Temp. mínima en grados centígrados (hora)
DESCASC
Temp. media en grados centígrados
DESCASC
Racha de viento máxima en m/sg (hora)
DESCASC
Velocidad máxima media en intervalos de 10 minutos(hora)
DESCASC
Precipitaciones diarias en mm
DESCASC
Precipitaciones de 00:00 a 06:00 en mm
DESCASC
Precipitaciones de 06:00 a 12:00 en mm
DESCASC
Precipitaciones de 12:00 a 18:00 en mm
DESCASC
Precipitaciones de 18:00 a 24:00 en mm
DESCASC
25-04-2019 18.6 (17:10) 8.9 (07:40) 13.8 11.67 (05:50) 6.67 (05:50) 1.7 1.7 0 0 0
24-04-2019 16.1 (16:50) 6.1 (08:00) 11.1 20.83 (14:30) 8.61 (14:50) 8.5 0.7 0 0.2 7.6
23-04-2019 20.1 (13:20) 10 (23:30) 15.1 10 (15:10) 3.89 (19:40) 3.6 0 0 0.6 3
22-04-2019 22.2 (15:40) 8.8 (00:00) 15.5 9.72 (23:20) 3.61 (23:30) 0 0 0 0 0
21-04-2019 18.7 (16:00) 5.5 (00:00) 12.1 4.72 (17:10) 1.94 (17:10) 0 0 0 0 0
20-04-2019 22.3 (13:50) 8.3 (00:00) 15.3 7.22 (16:10) 3.33 (16:10) 0 0 0 0 0
19-04-2019 21.6 (18:10) 9.2 (00:00) 15.4 5 (16:00) 2.5 (16:00) 0 0 0 0 0
18-04-2019 19.3 (15:40) 12.8 (00:00) 16 8.61 (05:10) 3.61 (03:20) 0.1 0 0 0.1 0
17-04-2019 23.9 (17:10) 7.9 (00:00) 15.9 10.83 (17:30) 5 (17:30) 0 0 0 0 0
16-04-2019 20.8 (16:30) 8.8 (00:00) 14.8 5.83 (19:00) 2.78 (19:00) 1 1 0 0 0
15-04-2019 23.4 (17:30) 5.3 (00:00) 14.3 11.94 (18:30) 5.28 (13:10) 19.4 0 0 0 19.4
14-04-2019 18.9 (14:10) 3.9 (00:00) 11.4 5.28 (17:00) 2.78 (17:00) 0 0 0 0 0
13-04-2019 -- (--) -- (--) -- -- (--) -- (--) -- -- -- 0 0
12-04-2019 -- (--) -- (--) -- -- (--) -- (--) -- 0 0 -- --
11-04-2019 12.7 (15:40) 5.3 (00:00) 9 5.28 (13:00) 2.78 (19:40) 6.7 1.6 4.9 0.2 0
10-04-2019 15 (17:20) 7.6 (00:00) 11.3 7.5 (17:20) 3.61 (17:20) 4.7 1.6 1.2 0 1.9
09-04-2019 18.1 (15:40) 3 (00:00) 10.6 7.78 (17:10) 4.72 (14:40) 1.3 0 0 0.3 1
08-04-2019 13.5 (17:10) 4.6 (00:00) 9 10.28 (05:00) 4.17 (05:00) 2.3 0 1.3 1 0
07-04-2019 14.9 (17:10) 5 (00:00) 9.9 4.44 (14:50) 1.67 (17:30) 2.6 1 0.9 0.7 0
06-04-2019 16.2 (16:10) 5.3 (00:00) 10.8 9.72 (15:20) 5 (15:20) 6.6 2.5 2.4 0.1 1.6
05-04-2019 14.3 (18:20) 6.7 (00:00) 10.5 11.67 (08:00) 5.28 (01:00) 6.5 0 0 0 6.5
04-04-2019 15 (17:40) 2.6 (00:00) 8.8 10.83 (15:50) 3.89 (13:00) 1.8 1.8 0 0 0
03-04-2019 11.1 (14:30) 3.1 (00:00) 7.1 10.83 (12:40) 3.61 (12:50) 6.9 1.3 1.3 1.4 2.9
02-04-2019 17.1 (14:40) 7.7 (00:00) 12.4 6.67 (16:50) 3.61 (16:30) 2.6 1.7 0 0 0.9
01-04-2019 16.5 (17:20) 8.8 (00:00) 12.7 4.72 (00:50) 1.94 (01:00) 8 3.8 4.2 0 0
31-03-2019 21.7 (15:10) 1 (00:00) 11.4 5 (16:10) 2.5 (16:40) 0 0 0 0 0
30-03-2019 22 (15:40) 5.4 (00:00) 13.7 8.61 (10:30) 4.17 (11:10) 0 0 0 0 0
29-03-2019 21.6 (16:20) -0.8 (-00:0) 10.4 10.28 (12:20) 4.72 (12:50) 0 0 0 0 0
28-03-2019 17 (14:00) -1.1 (-00:0) 7.9 7.78 (15:20) 4.72 (16:40) 0 0 0 0 0
27-03-2019 16.6 (14:20) -1.6 (-00:0) 7.5 8.89 (17:40) 4.44 (17:40) 0 0 0 0 0

Gráficas

Temp. máximas Temp. mínimas Temp. medias Precipitaciones Rachas de viento máximas Velocidades máximas media en intervalos de 10 minutos

Datos horarios

Fecha y hora oficial Temperatura (ºC) Velocidad del viento (km/h) Dirección del viento Racha (km/h) Dirección de racha Precipitación (mm) Presión (hPa) Tendencia (hPa) Humedad (%)
2019-04-25 23:00:00 13.6 9 Sudoeste 38 Sur 0 -- -- 43
2019-04-25 22:00:00 14.6 16 Sudoeste 37 Sudoeste 0 -- -- 38
2019-04-25 21:00:00 14.4 12 Sudoeste 35 Sudoeste 0 -- -- 38
2019-04-25 20:00:00 15.6 11 Sudoeste 36 Sudoeste 0 -- -- 36
2019-04-25 19:00:00 16.7 13 Sudoeste 29 Sudoeste 0 -- -- 35
2019-04-25 18:00:00 16 5 Sudoeste 31 Sudoeste 0 -- -- 36
2019-04-25 17:00:00 17.7 13 Sudoeste 34 Sudoeste 0 -- -- 34
2019-04-25 16:00:00 16.9 15 Sudoeste 39 Sur 0 -- -- 34
2019-04-25 15:00:00 16.8 17 Sudoeste 39 Sudoeste 0 -- -- 35
2019-04-25 14:00:00 17.1 14 Sudoeste 41 Sudoeste 0 -- -- 37
2019-04-25 13:00:00 16.8 8 Sudoeste 37 Oeste 0 -- -- 40
2019-04-25 12:00:00 16.1 9 Sur 39 Sudoeste 0 -- -- 43
2019-04-25 11:00:00 14.8 17 Sudoeste 40 Sudoeste 0 -- -- 44
2019-04-25 10:00:00 12.9 3 Este 24 Sudeste 0 -- -- 54
2019-04-25 09:00:00 13 4 Norte 24 Sudoeste 0 -- -- 52
2019-04-25 08:00:00 10.4 6 Noroeste 16 Noroeste 0 -- -- 63
2019-04-25 07:00:00 10.3 4 Oeste 28 Sur 0 -- -- 65
2019-04-25 06:00:00 12.2 20 Sudoeste 42 Sudoeste 0 -- -- 56
2019-04-25 05:00:00 11.5 4 Oeste 24 Sur 0.1 -- -- 79
2019-04-25 04:00:00 11.8 6 Sudoeste 30 Sudoeste 1.2 -- -- 77
2019-04-25 03:00:00 11 2 Sudoeste 26 Sudoeste 0.4 -- -- 91
2019-04-25 02:00:00 13.3 10 Sudoeste 29 Sur 0 -- -- 68
2019-04-25 01:00:00 11.2 4 Norte 14 Norte 0 -- -- 81
2019-04-25 00:00:00 10.9 4 Norte 25 Sudoeste 0 -- -- 82
2019-04-24 23:00:00 11.3 4 Sudoeste 19 Noroeste 0.6 -- -- 87
2019-04-24 22:00:00 11.3 4 Noroeste 35 Sudoeste 5.4 -- -- 92
2019-04-24 21:00:00 12.3 13 Sur 42 Sudoeste 1.3 -- -- 75
2019-04-24 20:00:00 13.3 15 Sur 54 Sudoeste 0.3 -- -- 63
2019-04-24 19:00:00 15 15 Sur 54 Sudoeste 0 -- -- 49
2019-04-24 18:00:00 15.1 13 Sur 48 Sudeste 0 -- -- 48
2019-04-24 17:00:00 15.3 3 Sur 59 Sur 0 -- -- 48
2019-04-24 16:00:00 14.4 10 Sur 63 Sur 0 -- -- 48
2019-04-24 15:00:00 -- 29 Sur 75 Sur 0 -- -- --
2019-04-24 14:00:00 13 13 Sur 62 Sudeste 0.1 -- -- 57
2019-04-24 13:00:00 11.4 13 Sur 38 Sur 0.1 -- -- 61
2019-04-24 12:00:00 11.1 10 Sur 46 Sudoeste 0 -- -- 56
2019-04-24 11:00:00 12.1 4 Este 26 Sudeste 0 -- -- 51
2019-04-24 10:00:00 11.3 13 Sudeste 34 Sur 0 -- -- 56
2019-04-24 09:00:00 9.4 11 Sudeste 30 Sudeste 0 -- -- 74
2019-04-24 08:00:00 6.3 0 Calma 5 Sudoeste 0 -- -- 97
2019-04-24 07:00:00 7 0 Calma 6 Sur 0 -- -- 97
2019-04-24 06:00:00 7.9 0 Calma -- -- 0 -- -- 97
2019-04-24 05:00:00 8.4 0 Calma 2 Sudoeste 0 -- -- 96
2019-04-24 04:00:00 8.8 0 Calma 4 Sudoeste 0 -- -- 95
2019-04-24 03:00:00 9.3 0 Calma 5 Sudeste 0 -- -- 95
2019-04-24 02:00:00 9.8 5 Sur 8 Sur 0.3 -- -- 96
2019-04-24 01:00:00 10 0 Calma 8 Sudeste 0.4 -- -- 95
2019-04-24 00:00:00 10 0 Calma 4 Sudeste 0.1 -- -- 95
2019-04-23 23:00:00 10.3 0 Calma 9 Noroeste 0 -- -- 93
2019-04-23 22:00:00 10.8 0 Calma 13 Oeste 1.8 -- -- 89
2019-04-23 21:00:00 12.7 2 Oeste 18 Sur 1.1 -- -- 81
2019-04-23 20:00:00 15.1 8 Sur 30 Sur 0 -- -- 60
2019-04-23 19:00:00 15.4 8 Sur 18 Sur 0 -- -- 68
2019-04-23 18:00:00 14.4 3 Sudeste 29 Sudoeste 0.2 -- -- 70
2019-04-23 17:00:00 16.7 0 Calma 11 Noroeste 0.3 -- -- 66
2019-04-23 16:00:00 15.7 4 Noroeste 36 Sudoeste 0.1 -- -- 68
2019-04-23 15:00:00 18.6 8 Sur 32 Sur 0 -- -- 48
2019-04-23 14:00:00 19.5 7 Sur 31 Sudeste 0 -- -- 46
2019-04-23 13:00:00 18.7 11 Sur 26 Sur 0 -- -- 48
2019-04-23 12:00:00 18.1 9 Sur 28 Sur 0 -- -- 51
2019-04-23 11:00:00 17.3 9 Sur 36 Sudoeste 0 -- -- 53
2019-04-23 10:00:00 16.5 10 Sur 26 Sur 0 -- -- 56
2019-04-23 09:00:00 15.7 4 Sudeste 24 Sudoeste 0 -- -- 57
2019-04-23 08:00:00 13.4 0 Calma 22 Sur 0 -- -- 65
2019-04-23 07:00:00 15.7 8 Sudeste 26 Sur 0 -- -- 54
2019-04-23 06:00:00 15.2 8 Sudeste 26 Sur 0 -- -- 55
2019-04-23 05:00:00 14.6 5 Sudeste 34 Sudoeste 0 -- -- 57
2019-04-23 04:00:00 14.1 7 Sur 21 Sudeste 0 -- -- 59
2019-04-23 03:00:00 15.6 11 Sur 25 Sur 0 -- -- 52
2019-04-23 02:00:00 15.3 5 Sur 21 Sudoeste 0 -- -- 52
2019-04-23 01:00:00 15.1 4 Sudeste 15 Sudeste 0 -- -- 52
2019-04-23 00:00:00 16.3 4 Sudeste 35 Sudoeste 0 -- -- 47
2019-04-22 23:00:00 17 9 Sur 27 Este 0 -- -- 46
2019-04-22 22:00:00 16.1 5 Sudeste 11 Sudeste 0 -- -- 56
2019-04-22 21:00:00 16.9 0 Calma 14 Sur 0 -- -- 56
2019-04-22 20:00:00 18.9 3 Sur 15 Sudoeste 0 -- -- 41
2019-04-22 19:00:00 19.8 5 Sur 16 Sur 0 -- -- 40
2019-04-22 18:00:00 19.8 8 Sur 20 Sur 0 -- -- 40
2019-04-22 17:00:00 20.8 8 Sur 21 Sudoeste 0 -- -- 37
2019-04-22 16:00:00 21 8 Sudoeste 23 Sudoeste 0 -- -- 35
2019-04-22 15:00:00 21.4 9 Sudoeste 30 Sudoeste 0 -- -- 35
2019-04-22 14:00:00 20.7 0 Calma 12 Noroeste 0 -- -- 40
2019-04-22 13:00:00 17.4 3 Este 8 Este 0 -- -- 54
2019-04-22 12:00:00 14.7 0 Calma 5 Este 0 -- -- 66
2019-04-22 11:00:00 12.3 0 Calma 4 Nordeste 0 -- -- 80
2019-04-22 10:00:00 11.3 0 Calma 3 Este 0 -- -- 88
2019-04-22 09:00:00 10.2 0 Calma -- -- 0 -- -- 95
2019-04-22 08:00:00 9.6 0 Calma -- -- 0 -- -- 95
2019-04-22 07:00:00 9.5 0 Calma -- -- 0 -- -- 95
2019-04-22 06:00:00 9.2 0 Calma -- -- 0 -- -- 95
2019-04-22 05:00:00 9 0 Calma -- -- 0 -- -- 95
2019-04-22 04:00:00 9.9 0 Calma 0 Calma 0 -- -- 94
2019-04-22 03:00:00 10.2 0 Calma -- -- 0 -- -- 93
2019-04-22 02:00:00 10.6 0 Calma -- -- 0 -- -- 92
2019-04-22 01:00:00 10.8 0 Calma 3 Noroeste 0 -- -- 91
2019-04-22 00:00:00 10.9 0 Calma 2 Sudoeste 0 -- -- 89
2019-04-21 23:00:00 11.6 0 Calma 4 Sudoeste 0 -- -- 86
2019-04-21 22:00:00 12.3 0 Calma 4 Sudoeste 0 -- -- 81
2019-04-21 21:00:00 13.4 0 Calma 10 Este 0 -- -- 70
2019-04-21 20:00:00 14.7 7 Nordeste 13 Norte 0 -- -- 59
2019-04-21 19:00:00 15 3 Sudoeste 9 Sudoeste 0 -- -- 64
2019-04-21 18:00:00 15 0 Calma 17 Nordeste 0 -- -- 59
2019-04-21 17:00:00 15.5 7 Norte 16 Norte 0 -- -- 52
2019-04-21 16:00:00 17.6 3 Sudoeste 9 Noroeste 0 -- -- 47
2019-04-21 15:00:00 17.1 3 Sudeste 10 Sudoeste 0 -- -- 50
2019-04-21 14:00:00 16 3 Sur 6 Sur 0 -- -- 52
2019-04-21 13:00:00 14.7 0 Calma 6 Nordeste 0 -- -- 57
2019-04-21 12:00:00 13.1 0 Calma 6 Noroeste 0 -- -- 69
2019-04-21 11:00:00 11.4 2 Nordeste 5 Nordeste 0 -- -- 82
2019-04-21 10:00:00 9.1 2 Norte 5 Norte 0 -- -- 93
2019-04-21 09:00:00 8 0 Calma 6 Noroeste 0 -- -- 97
2019-04-21 08:00:00 7 2 Sur 5 Sudoeste 0 -- -- 97
2019-04-21 07:00:00 6.5 0 Calma 5 Norte 0 -- -- 97
2019-04-21 06:00:00 6 0 Calma 4 Sudeste 0 -- -- 96
2019-04-21 05:00:00 5.8 0 Calma 3 Noroeste 0 -- -- 96
2019-04-21 04:00:00 6.4 0 Calma 3 Oeste 0 -- -- 96
2019-04-21 03:00:00 6.9 0 Calma 4 Oeste 0 -- -- 96
2019-04-21 02:00:00 7.2 2 Sudoeste 6 Sudoeste 0 -- -- 95
2019-04-21 01:00:00 7.9 0 Calma 6 Sudoeste 0 -- -- 93
2019-04-21 00:00:00 8.9 0 Calma 4 Nordeste 0 -- -- 89
2019-04-20 23:00:00 10.8 0 Calma 4 Nordeste 0 -- -- 82
2019-04-20 22:00:00 13.2 0 Calma 10 Sudeste 0 -- -- 65
2019-04-20 21:00:00 15.4 5 Este 13 Nordeste 0 -- -- 57
2019-04-20 20:00:00 18.4 2 Nordeste 9 Este 0 -- -- 53
2019-04-20 19:00:00 19.1 5 Nordeste 15 Este 0 -- -- 52
2019-04-20 18:00:00 18.7 4 Este 17 Nordeste 0 -- -- 52
2019-04-20 17:00:00 18.6 6 Nordeste 26 Este 0 -- -- 52
2019-04-20 16:00:00 18.9 8 Nordeste 21 Nordeste 0 -- -- 52
2019-04-20 15:00:00 19.6 10 Norte 20 Norte 0 -- -- 50
2019-04-20 14:00:00 20.9 7 Nordeste 17 Norte 0 -- -- 46
2019-04-20 13:00:00 20.7 0 Calma 7 Norte 0 -- -- 44
2019-04-20 12:00:00 19.5 3 Sudeste 11 Sudeste 0 -- -- 47
2019-04-20 11:00:00 17.2 2 Sudeste 5 Sur 0 -- -- 63
2019-04-20 10:00:00 12.8 2 Sur 5 Sur 0 -- -- 88
2019-04-20 09:00:00 10.5 0 Calma -- -- 0 -- -- 97
2019-04-20 08:00:00 8.6 0 Calma -- -- 0 -- -- 96
2019-04-20 07:00:00 8.8 0 Calma -- -- 0 -- -- 96
2019-04-20 06:00:00 9.2 0 Calma -- -- 0 -- -- 96
2019-04-20 05:00:00 10.1 0 Calma -- -- 0 -- -- 95
2019-04-20 04:00:00 10.3 0 Calma -- -- 0 -- -- 92
2019-04-20 03:00:00 11.5 0 Calma 3 Sudoeste 0 -- -- 90
2019-04-20 02:00:00 13.3 0 Calma -- -- 0 -- -- 89
2019-04-20 01:00:00 13.4 0 Calma 4 Norte 0 -- -- 89
2019-04-20 00:00:00 13.2 0 Calma -- -- 0 -- -- 89
2019-04-19 23:00:00 13 0 Calma 3 Sudoeste 0 -- -- 84
2019-04-19 22:00:00 15.3 0 Calma 4 Noroeste 0 -- -- 75
2019-04-19 21:00:00 18.1 2 Este 10 Nordeste 0 -- -- 57
2019-04-19 20:00:00 19.5 6 Nordeste 12 Nordeste 0 -- -- 52
2019-04-19 19:00:00 20.3 4 Nordeste 14 Este 0 -- -- 47
2019-04-19 18:00:00 21.4 7 Nordeste 18 Nordeste 0 -- -- 44
2019-04-19 17:00:00 20.5 5 Nordeste 16 Este 0 -- -- 44
2019-04-19 16:00:00 20.4 9 Nordeste 18 Este 0 -- -- 48
2019-04-19 15:00:00 20.3 0 Calma 6 Sudoeste 0 -- -- 50
2019-04-19 14:00:00 18.5 0 Calma 4 Nordeste 0 -- -- 53
2019-04-19 13:00:00 17.7 0 Calma 6 Nordeste 0 -- -- 54
2019-04-19 12:00:00 15.9 0 Calma 5 Norte 0 -- -- 63
2019-04-19 11:00:00 12.9 0 Calma 4 Nordeste 0 -- -- 85
2019-04-19 10:00:00 11.2 0 Calma 6 Sudoeste 0 -- -- 94
2019-04-19 09:00:00 10.4 2 Norte 4 Sur 0 -- -- 95
2019-04-19 08:00:00 9.2 0 Calma 2 Sur 0 -- -- 95
2019-04-19 07:00:00 9.8 0 Calma 4 Nordeste 0 -- -- 94
2019-04-19 06:00:00 10.2 0 Calma 5 Noroeste 0 -- -- 94
2019-04-19 05:00:00 10.7 0 Calma 9 Este 0 -- -- 93
2019-04-19 04:00:00 10.9 0 Calma 8 Sudoeste 0 -- -- 92
2019-04-19 03:00:00 10.9 0 Calma 4 Sudoeste 0 -- -- 92
2019-04-19 02:00:00 11.3 0 Calma 3 Norte 0 -- -- 91
2019-04-19 01:00:00 11.6 0 Calma 4 Sudoeste 0 -- -- 88
2019-04-19 00:00:00 12.8 0 Calma 5 Noroeste 0 -- -- 81
2019-04-18 23:00:00 13.5 0 Calma 6 Oeste 0 -- -- 80
2019-04-18 22:00:00 14.2 0 Calma 7 Sudoeste 0 -- -- 75
2019-04-18 21:00:00 14.6 2 Este 8 Nordeste 0 -- -- 71
2019-04-18 20:00:00 15.6 2 Este 15 Noroeste 0 -- -- 68
2019-04-18 19:00:00 16.3 5 Norte 21 Noroeste 0 -- -- 65
2019-04-18 18:00:00 17.9 7 Nordeste 16 Nordeste 0 -- -- 57
2019-04-18 17:00:00 18.3 8 Nordeste 18 Nordeste 0 -- -- 54
2019-04-18 16:00:00 18.3 6 Nordeste 23 Norte 0 -- -- 55
2019-04-18 15:00:00 18.1 10 Norte 18 Noroeste 0 -- -- 59
2019-04-18 14:00:00 16.5 0 Calma 10 Sudoeste 0.1 -- -- 66
2019-04-18 13:00:00 15.2 3 Sur 18 Sudoeste 0 -- -- 58
2019-04-18 12:00:00 15.5 2 Sudoeste 21 Sudoeste 0 -- -- 55
2019-04-18 11:00:00 15.7 6 Oeste 27 Noroeste 0 -- -- 53
2019-04-18 10:00:00 16 7 Noroeste 18 Norte 0 -- -- 52
2019-04-18 09:00:00 15.2 6 Noroeste 17 Norte 0 -- -- 52
2019-04-18 08:00:00 15.1 6 Sudoeste 27 Sur 0 -- -- 51
2019-04-18 07:00:00 15 2 Noroeste 25 Noroeste 0 -- -- 51
2019-04-18 06:00:00 14.8 10 Noroeste 31 Sur 0 -- -- 52
2019-04-18 05:00:00 15.7 7 Sudoeste 28 Sur 0 -- -- 51
2019-04-18 04:00:00 15.8 6 Oeste 31 Sur 0 -- -- 52
2019-04-18 03:00:00 16.2 4 Sur 18 Noroeste 0 -- -- 55
2019-04-18 02:00:00 16.5 10 Sudoeste 25 Noroeste 0 -- -- 53
2019-04-18 01:00:00 17.4 9 Noroeste 27 Noroeste 0 -- -- 52
2019-04-18 00:00:00 18.5 9 Noroeste 22 Sudoeste 0 -- -- 50
2019-04-17 23:00:00 18.8 5 Oeste 22 Noroeste 0 -- -- 49
2019-04-17 22:00:00 17.7 0 Calma 17 Noroeste 0 -- -- 53
2019-04-17 21:00:00 20.3 5 Oeste 17 Oeste 0 -- -- 45
2019-04-17 20:00:00 20.6 4 Sur 20 Sudoeste 0 -- -- 42
2019-04-17 19:00:00 22 5 Sur 25 Sur 0 -- -- 39
2019-04-17 18:00:00 23.3 6 Sur 39 Sur 0 -- -- 34
2019-04-17 17:00:00 23.3 14 Sudoeste 36 Sur 0 -- -- 34
2019-04-17 16:00:00 22.9 12 Sur 30 Sudoeste 0 -- -- 37
2019-04-17 15:00:00 22.3 12 Sudoeste 20 Sudoeste 0 -- -- 38
2019-04-17 14:00:00 20.7 5 Norte 24 Sudoeste 0 -- -- 39
2019-04-17 13:00:00 19.4 12 Sur 28 Sudeste 0 -- -- 42
2019-04-17 12:00:00 18.4 7 Sudoeste 27 Sur 0 -- -- 44
2019-04-17 11:00:00 17.4 9 Sudoeste 36 Sudoeste 0 -- -- 45
2019-04-17 10:00:00 16.7 12 Sur 38 Sudoeste 0 -- -- 46
2019-04-17 09:00:00 16.1 4 Sudoeste 14 Sudoeste 0 -- -- 51
2019-04-17 08:00:00 13.1 3 Sudeste 24 Sudoeste 0 -- -- 59
2019-04-17 07:00:00 15.2 9 Sur 22 Sudoeste 0 -- -- 51
2019-04-17 06:00:00 14 4 Sur 22 Sudoeste 0 -- -- 68
2019-04-17 05:00:00 15 8 Sudoeste 27 Sudoeste 0 -- -- 51
2019-04-17 04:00:00 15.6 11 Sur 28 Sudoeste 0 -- -- 50
2019-04-17 03:00:00 13.2 8 Sur 23 Sur 0 -- -- 71
2019-04-17 02:00:00 8.3 0 Calma 13 Nordeste 0 -- -- 93
2019-04-17 01:00:00 8.4 0 Calma 12 Sudoeste 0 -- -- 92
2019-04-17 00:00:00 8.9 0 Calma 3 Noroeste 0 -- -- 89
2019-04-16 23:00:00 10.2 0 Calma 7 Sur 0 -- -- 85
2019-04-16 22:00:00 12.1 0 Calma 7 Nordeste 0 -- -- 75
2019-04-16 21:00:00 15.4 5 Nordeste 14 Nordeste 0 -- -- 56
2019-04-16 20:00:00 16.9 8 Nordeste 20 Nordeste 0 -- -- 51
2019-04-16 19:00:00 18.7 10 Nordeste 21 Nordeste 0 -- -- 47
2019-04-16 18:00:00 19.4 8 Nordeste 16 Este 0 -- -- 44
2019-04-16 17:00:00 20.4 6 Este 15 Este 0 -- -- 43
2019-04-16 16:00:00 19.4 7 Nordeste 14 Nordeste 0 -- -- 40
2019-04-16 15:00:00 18.6 5 Nordeste 17 Este 0 -- -- 44
2019-04-16 14:00:00 18.5 5 Este 14 Sudeste 0 -- -- 47
2019-04-16 13:00:00 17.4 4 Este 13 Nordeste 0 -- -- 48
2019-04-16 12:00:00 16.6 4 Nordeste 14 Sudeste 0 -- -- 56
2019-04-16 11:00:00 15.1 3 Sudeste 10 Este 0 -- -- 61
2019-04-16 10:00:00 13.5 2 Este 6 Sudeste 0 -- -- 83
2019-04-16 09:00:00 10.5 0 Calma 4 Sudoeste 0 -- -- 96
2019-04-16 08:00:00 9.7 0 Calma 4 Sudoeste 0 -- -- 96
2019-04-16 07:00:00 10 0 Calma 5 Sur 0 -- -- 96
2019-04-16 06:00:00 10 0 Calma 3 Noroeste 0 -- -- 96
2019-04-16 05:00:00 10.4 0 Calma 4 Sudoeste 0.1 -- -- 96
2019-04-16 04:00:00 10.7 0 Calma 3 Noroeste 0 -- -- 96
2019-04-16 03:00:00 10.7 0 Calma -- -- 0 -- -- 96
2019-04-16 02:00:00 10.8 0 Calma -- -- 0.2 -- -- 96
2019-04-16 01:00:00 11.1 0 Calma 8 Norte 0.7 -- -- 96
2019-04-16 00:00:00 11.3 0 Calma 5 Noroeste 2.1 -- -- 95
2019-04-15 23:00:00 11.5 0 Calma 6 Noroeste 3.4 -- -- 95
2019-04-15 22:00:00 11.8 2 Oeste 13 Sudoeste 1 -- -- 93
2019-04-15 21:00:00 12.4 4 Sudoeste 32 Noroeste 7.8 -- -- 89
2019-04-15 20:00:00 13.9 0 Calma 13 Sudoeste 3.4 -- -- 88
2019-04-15 19:00:00 15.1 4 Sudoeste 43 Noroeste 1.7 -- -- 80
2019-04-15 18:00:00 22.2 5 Sudoeste 21 Sur 0 -- -- 42
2019-04-15 17:00:00 22.5 9 Sudoeste 32 Sudoeste 0 -- -- 41
2019-04-15 16:00:00 22.8 10 Sudoeste 33 Sudoeste 0 -- -- 40
2019-04-15 15:00:00 22 5 Sur 28 Sudeste 0 -- -- 44
2019-04-15 14:00:00 21.4 6 Sur 36 Sur 0 -- -- 44
2019-04-15 13:00:00 21.2 17 Sur 36 Sudeste 0 -- -- 44
2019-04-15 12:00:00 20.9 14 Sudeste 35 Sur 0 -- -- 44
2019-04-15 11:00:00 13.8 2 Noroeste 12 Norte 0 -- -- 81
2019-04-15 10:00:00 10.3 0 Calma 7 Sudeste 0 -- -- 93
2019-04-15 09:00:00 7.6 0 Calma 5 Norte 0 -- -- 97
2019-04-15 08:00:00 6.2 0 Calma -- -- 0 -- -- 97
2019-04-15 07:00:00 5.6 0 Calma -- -- 0 -- -- 97
2019-04-15 06:00:00 5.6 0 Calma -- -- 0 -- -- 97
2019-04-15 05:00:00 5.8 0 Calma 2 Norte 0 -- -- 97
2019-04-15 04:00:00 6.3 0 Calma 5 Sudoeste 0 -- -- 97
2019-04-15 03:00:00 6.2 0 Calma 3 Noroeste 0 -- -- 96
2019-04-15 02:00:00 6.9 0 Calma 4 Norte 0 -- -- 96
2019-04-15 01:00:00 7.1 0 Calma -- -- 0 -- -- 95
2019-04-15 00:00:00 8 0 Calma 4 Sudoeste 0 -- -- 94
2019-04-14 23:00:00 9.1 0 Calma 3 Sudoeste 0 -- -- 92
2019-04-14 22:00:00 10.5 0 Calma 3 Sur 0 -- -- 87
2019-04-14 21:00:00 13.1 0 Calma 3 Sudoeste 0 -- -- 79
2019-04-14 20:00:00 15.9 0 Calma 4 Nordeste 0 -- -- 68
2019-04-14 19:00:00 17 2 Nordeste 6 Nordeste 0 -- -- 60
2019-04-14 18:00:00 17.1 0 Calma 15 Norte 0 -- -- 56
2019-04-14 17:00:00 17.1 10 Norte 19 Norte 0 -- -- 52
2019-04-14 16:00:00 18.2 2 Este 15 Nordeste 0 -- -- 46
2019-04-14 15:00:00 18.1 4 Oeste 14 Noroeste 0 -- -- 42
2019-04-14 14:00:00 18.3 2 Este 6 Este 0 -- -- 40
2019-04-14 13:00:00 16.7 0 Calma 6 Sudeste 0 -- -- 45
2019-04-14 12:00:00 14.2 0 Calma 4 Nordeste 0 -- -- 54
2019-04-14 11:00:00 12.2 0 Calma 4 Este 0 -- -- 59
2019-04-14 10:00:00 9.4 0 Calma 3 Sur 0 -- -- 74
2019-04-14 09:00:00 8.2 0 Calma 4 Norte 0 -- -- 85
2019-04-14 08:00:00 7 0 Calma -- -- 0 -- -- 90
2019-04-14 07:00:00 6.5 0 Calma -- -- 0 -- -- 92
2019-04-14 06:00:00 6 0 Calma -- -- 0 -- -- 93
2019-04-14 05:00:00 5.5 0 Calma -- -- 0 -- -- 95
2019-04-14 04:00:00 4.6 0 Calma 0 Calma 0 -- -- 95
2019-04-14 03:00:00 3.9 0 Calma 4 Sudoeste 0 -- -- 93
2019-04-14 02:00:00 4.5 0 Calma -- -- 0 -- -- 93
2019-04-14 01:00:00 4.8 0 Calma -- -- 0 -- -- 90
2019-04-14 00:00:00 6 0 Calma -- -- 0 -- -- 88
2019-04-13 23:00:00 7.1 0 Calma -- -- 0 -- -- 82
2019-04-13 22:00:00 9.1 0 Calma 5 Sudoeste 0 -- -- 71
2019-04-13 21:00:00 12.6 3 Sudoeste 9 Este 0 -- -- 53
2019-04-13 20:00:00 17.5 3 Nordeste 13 Nordeste 0 -- -- 31
2019-04-13 19:00:00 19.5 8 Nordeste 17 Norte 0 -- -- 26
2019-04-13 18:00:00 20.6 9 Norte 22 Este 0 -- -- 27
2019-04-13 17:00:00 20.9 7 Nordeste 15 Este 0 -- -- 25
2019-04-13 16:00:00 21.8 3 Sudeste 10 Sudeste 0 -- -- 23
2019-04-13 15:00:00 20.2 0 Calma 12 Nordeste 0 -- -- 26
2019-04-13 14:00:00 18.7 2 Noroeste 8 Sur 0 -- -- 27
2019-04-13 13:00:00 16.5 0 Calma 7 Sudoeste 0 -- -- 44
2019-04-13 12:00:00 11.6 0 Calma 5 Este 0 -- -- 64
2019-04-13 11:00:00 5.2 0 Calma 4 Noroeste 0 -- -- 97
2019-04-13 10:00:00 2.1 2 Sudoeste 5 Sudoeste 0 -- -- 98
2019-04-13 09:00:00 -- -- -- -- -- -- -- -- --
2019-04-13 08:00:00 -- -- -- -- -- -- -- -- --
2019-04-13 07:00:00 -- -- -- -- -- -- -- -- --
2019-04-13 06:00:00 -- -- -- -- -- -- -- -- --
2019-04-13 05:00:00 -- -- -- -- -- -- -- -- --
2019-04-13 04:00:00 -- -- -- -- -- -- -- -- --
2019-04-13 03:00:00 -- -- -- -- -- -- -- -- --
2019-04-13 02:00:00 -- -- -- -- -- -- -- -- --
2019-04-13 01:00:00 -- -- -- -- -- -- -- -- --
2019-04-13 00:00:00 -- -- -- -- -- -- -- -- --
2019-04-12 23:00:00 -- -- -- -- -- -- -- -- --
2019-04-12 22:00:00 -- -- -- -- -- -- -- -- --
2019-04-12 21:00:00 -- -- -- -- -- -- -- -- --
2019-04-12 20:00:00 -- -- -- -- -- -- -- -- --
2019-04-12 19:00:00 -- -- -- -- -- -- -- -- --
2019-04-12 18:00:00 -- -- -- -- -- -- -- -- --
2019-04-12 17:00:00 -- -- -- -- -- -- -- -- --
2019-04-12 16:00:00 -- -- -- -- -- -- -- -- --
2019-04-12 15:00:00 -- -- -- -- -- -- -- -- --
2019-04-12 14:00:00 -- -- -- -- -- -- -- -- --
2019-04-12 13:00:00 12.7 9 Norte 21 Noroeste 0 -- -- 52
2019-04-12 12:00:00 12.6 8 Norte 18 Noroeste 0 -- -- 58
2019-04-12 11:00:00 11.4 6 Norte 15 Noroeste 0 -- -- 64
2019-04-12 10:00:00 10.4 0 Calma 6 Oeste 0 -- -- 75
2019-04-12 09:00:00 8.3 0 Calma 5 Nordeste 0 -- -- 93
2019-04-12 08:00:00 7.6 2 Sudeste 6 Noroeste 0 -- -- 94
2019-04-12 07:00:00 8 0 Calma 8 Noroeste 0 -- -- 93
2019-04-12 06:00:00 8.7 0 Calma 5 Noroeste 0 -- -- 92
2019-04-12 05:00:00 9.3 0 Calma 4 Noroeste 0 -- -- 89
2019-04-12 04:00:00 9.5 0 Calma 6 Norte 0 -- -- 85
2019-04-12 03:00:00 9.6 0 Calma 9 Sudoeste 0 -- -- 84
2019-04-12 02:00:00 9.9 2 Oeste 9 Norte 0 -- -- 82
2019-04-12 01:00:00 10.2 6 Norte 14 Nordeste 0 -- -- 79
2019-04-12 00:00:00 9.5 0 Calma 4 Sur 0 -- -- 86
2019-04-11 23:00:00 9.6 0 Calma 8 Sudoeste 0 -- -- 86
2019-04-11 22:00:00 9.8 0 Calma 4 Noroeste 0 -- -- 82
2019-04-11 21:00:00 10.2 0 Calma 11 Norte 0 -- -- 75
2019-04-11 20:00:00 10.9 4 Norte 17 Norte 0 -- -- 66
2019-04-11 19:00:00 12 6 Noroeste 17 Norte 0 -- -- 66
2019-04-11 18:00:00 11.4 3 Sudoeste 16 Este 0 -- -- 73
2019-04-11 17:00:00 11.2 7 Este 17 Este 0 -- -- 75
2019-04-11 16:00:00 12.2 4 Noroeste 16 Sudoeste 0 -- -- 68
2019-04-11 15:00:00 11.4 8 Sudoeste 15 Sudoeste 0 -- -- 75
2019-04-11 14:00:00 11.7 2 Oeste 13 Sudoeste 0 -- -- 75
2019-04-11 13:00:00 10.4 5 Sudoeste 19 Sudoeste 0.2 -- -- 82
2019-04-11 12:00:00 9.4 4 Sudoeste 16 Noroeste 0.3 -- -- 84
2019-04-11 11:00:00 9.4 0 Calma 5 Sudeste 0.6 -- -- 95
2019-04-11 10:00:00 8.2 0 Calma 6 Norte 0 -- -- 97
2019-04-11 09:00:00 8.2 0 Calma 5 Sudoeste 2.4 -- -- 97
2019-04-11 08:00:00 6.5 0 Calma 5 Sur 1.5 -- -- 97
2019-04-11 07:00:00 6 0 Calma 3 Nordeste 0.1 -- -- 97
2019-04-11 06:00:00 5.5 0 Calma 4 Noroeste 0 -- -- 96
2019-04-11 05:00:00 6.7 0 Calma 6 Noroeste 0 -- -- 96
2019-04-11 04:00:00 7.6 0 Calma 6 Noroeste 0 -- -- 96
2019-04-11 03:00:00 8.2 0 Calma 6 Norte 0.1 -- -- 96
2019-04-11 02:00:00 8.2 0 Calma 6 Noroeste 1.5 -- -- 96
2019-04-11 01:00:00 8.4 0 Calma 4 Nordeste 0 -- -- 95
2019-04-11 00:00:00 8.7 2 Noroeste 6 Noroeste 0.5 -- -- 94
2019-04-10 23:00:00 8.9 3 Sudoeste 5 Sudoeste 0.9 -- -- 93
2019-04-10 22:00:00 8.9 4 Sudoeste 6 Sudoeste 0.5 -- -- 88
2019-04-10 21:00:00 9.9 0 Calma 19 Norte 0 -- -- 68
2019-04-10 20:00:00 11.5 8 Norte 22 Norte 0 -- -- 62
2019-04-10 19:00:00 12.2 10 Noroeste 24 Norte 0 -- -- 60
2019-04-10 18:00:00 13.2 11 Noroeste 27 Noroeste 0 -- -- 55
2019-04-10 17:00:00 13.5 12 Noroeste 26 Noroeste 0 -- -- 52
2019-04-10 16:00:00 13.3 10 Norte 24 Nordeste 0 -- -- 56
2019-04-10 15:00:00 13.2 8 Norte 18 Noroeste 0 -- -- 55
2019-04-10 14:00:00 12.8 9 Noroeste 19 Noroeste 0 -- -- 58
2019-04-10 13:00:00 12.4 5 Sudoeste 15 Sudoeste 0 -- -- 64
2019-04-10 12:00:00 10.5 3 Sudoeste 9 Sudoeste 0 -- -- 77
2019-04-10 11:00:00 8.9 3 Oeste 6 Sudoeste 0.2 -- -- 93
2019-04-10 10:00:00 8.5 0 Calma 4 Nordeste 0.4 -- -- 95
2019-04-10 09:00:00 8.1 3 Norte 5 Norte 0.3 -- -- 96
2019-04-10 08:00:00 7.7 3 Norte 4 Norte 0.3 -- -- 96
2019-04-10 07:00:00 7.8 0 Calma 4 Noroeste 0 -- -- 96
2019-04-10 06:00:00 7.9 0 Calma 0 Calma 0 -- -- 96
2019-04-10 05:00:00 7.8 0 Calma -- -- 0 -- -- 96
2019-04-10 04:00:00 7.8 0 Calma -- -- 0 -- -- 96
2019-04-10 03:00:00 8 0 Calma -- -- 0 -- -- 96
2019-04-10 02:00:00 8.3 0 Calma 0 Calma 1 -- -- 96
2019-04-10 01:00:00 8.3 0 Calma 4 Noroeste 0.6 -- -- 95
2019-04-10 00:00:00 8.5 0 Calma 5 Sudoeste 0 -- -- 93
2019-04-09 23:00:00 8.7 0 Calma 4 Sudoeste 0 -- -- 93
2019-04-09 22:00:00 9.3 0 Calma 6 Noroeste 0 -- -- 91
2019-04-09 21:00:00 9.8 0 Calma 8 Sudoeste 0 -- -- 85
2019-04-09 20:00:00 10.2 4 Sudoeste 12 Sur 0.1 -- -- 81
2019-04-09 19:00:00 10.6 4 Sudoeste 13 Sudoeste 0.9 -- -- 85
2019-04-09 18:00:00 11.7 5 Norte 28 Este 0 -- -- 67
2019-04-09 17:00:00 13.6 13 Nordeste 22 Nordeste 0.1 -- -- 56
2019-04-09 16:00:00 17.2 4 Este 16 Este 0 -- -- 42
2019-04-09 15:00:00 16.7 5 Sudeste 28 Sudoeste 0.2 -- -- 49
2019-04-09 14:00:00 16.3 6 Oeste 21 Sur 0 -- -- 40
2019-04-09 13:00:00 15.7 10 Sur 24 Sudoeste 0 -- -- 43
2019-04-09 12:00:00 15.4 8 Sur 26 Sur 0 -- -- 47
2019-04-09 11:00:00 9.9 0 Calma 6 Noroeste 0 -- -- 83
2019-04-09 10:00:00 5.6 0 Calma 5 Oeste 0 -- -- 98
2019-04-09 09:00:00 3.8 0 Calma 5 Este 0 -- -- 98
2019-04-09 08:00:00 3.4 0 Calma 4 Este 0 -- -- 98
2019-04-09 07:00:00 3.5 0 Calma 4 Nordeste 0 -- -- 98
2019-04-09 06:00:00 -- -- -- -- -- -- -- -- --
2019-04-09 05:00:00 3.6 0 Calma -- -- 0 -- -- 98
2019-04-09 04:00:00 3.5 0 Calma 0 Calma 0 -- -- 97
2019-04-09 03:00:00 3.2 0 Calma 3 Sudoeste 0 -- -- 97
2019-04-09 02:00:00 4.2 0 Calma 3 Sur 0 -- -- 97
2019-04-09 01:00:00 4.9 0 Calma 5 Sur 0 -- -- 96
2019-04-09 00:00:00 4.8 0 Calma 3 Sudeste 0 -- -- 96
2019-04-08 23:00:00 5.4 0 Calma 4 Sudoeste 0 -- -- 93
2019-04-08 22:00:00 7.4 0 Calma 4 Sudoeste 0 -- -- 88
2019-04-08 21:00:00 10.2 0 Calma 3 Nordeste 0 -- -- 83
2019-04-08 20:00:00 11.2 3 Norte 4 Noroeste 0 -- -- 72
2019-04-08 19:00:00 11.5 3 Sudeste 15 Este 0 -- -- 74
2019-04-08 18:00:00 13.1 0 Calma 8 Sudeste 0 -- -- 68
2019-04-08 17:00:00 13.2 0 Calma 9 Sudoeste 0.1 -- -- 72
2019-04-08 16:00:00 11.6 5 Sudoeste 13 Sudoeste 0.1 -- -- 79
2019-04-08 15:00:00 11.3 0 Calma 7 Noroeste 0.7 -- -- 86
2019-04-08 14:00:00 11.5 3 Noroeste 5 Noroeste 0.1 -- -- 82
2019-04-08 13:00:00 11 0 Calma 6 Sudoeste 0 -- -- 82
2019-04-08 12:00:00 10.8 0 Calma 5 Sudoeste 0.1 -- -- 84
2019-04-08 11:00:00 10.4 0 Calma 14 Oeste 0.9 -- -- 83
2019-04-08 10:00:00 10 7 Oeste 18 Noroeste 0.2 -- -- 76
2019-04-08 09:00:00 10.8 2 Noroeste 6 Norte 0.1 -- -- 76
2019-04-08 08:00:00 10.3 0 Calma 11 Noroeste 0 -- -- 68
2019-04-08 07:00:00 10.7 4 Noroeste 12 Noroeste 0 -- -- 63
2019-04-08 06:00:00 10 2 Noroeste 26 Sur 0 -- -- 65
2019-04-08 05:00:00 11.2 15 Sur 37 Sur 0 -- -- 54
2019-04-08 04:00:00 7 0 Calma 20 Este 0 -- -- 93
2019-04-08 03:00:00 6 2 Nordeste 10 Norte 0 -- -- 96
2019-04-08 02:00:00 5.1 0 Calma 5 Sudeste 0 -- -- 96
2019-04-08 01:00:00 5.5 0 Calma 3 Noroeste 0 -- -- 96
2019-04-08 00:00:00 5.6 0 Calma 3 Noroeste 0 -- -- 93
2019-04-07 23:00:00 6.1 0 Calma -- -- 0 -- -- 92
2019-04-07 22:00:00 6.7 0 Calma 4 Sudoeste 0 -- -- 86
2019-04-07 21:00:00 8.8 2 Sudoeste 7 Nordeste 0 -- -- 77
2019-04-07 20:00:00 12.4 3 Nordeste 8 Este 0 -- -- 55
2019-04-07 19:00:00 13.4 5 Nordeste 10 Nordeste 0 -- -- 51
2019-04-07 18:00:00 13.5 4 Nordeste 12 Nordeste 0 -- -- 52
2019-04-07 17:00:00 14.6 3 Oeste 10 Sur 0 -- -- 57
2019-04-07 16:00:00 12.4 0 Calma 12 Sudoeste 0 -- -- 63
2019-04-07 15:00:00 11.4 5 Sudoeste 16 Sudoeste 0 -- -- 64
2019-04-07 14:00:00 10.3 5 Sudoeste 12 Noroeste 0.1 -- -- 71
2019-04-07 13:00:00 9 4 Noroeste 10 Noroeste 0.6 -- -- 82
2019-04-07 12:00:00 8.5 0 Calma 4 Sur 0.6 -- -- 90
2019-04-07 11:00:00 7.9 0 Calma 4 Nordeste 0.3 -- -- 95
2019-04-07 10:00:00 6.9 0 Calma 6 Norte 0 -- -- 95
2019-04-07 09:00:00 6.2 3 Sur 5 Sudoeste 0 -- -- 96
2019-04-07 08:00:00 5.2 0 Calma 4 Sudoeste 0 -- -- 96
2019-04-07 07:00:00 6 0 Calma -- -- 0 -- -- 96
2019-04-07 06:00:00 6.4 0 Calma 0 Calma 0 -- -- 96
2019-04-07 05:00:00 6.6 0 Calma 3 Nordeste 0.1 -- -- 95
2019-04-07 04:00:00 6.7 2 Sudoeste 5 Sur 0.1 -- -- 94
2019-04-07 03:00:00 6.6 0 Calma 4 Sudoeste 0.1 -- -- 92
2019-04-07 02:00:00 6.9 0 Calma 6 Sudoeste 0.2 -- -- 92
2019-04-07 01:00:00 7.4 0 Calma 5 Norte 0.5 -- -- 92
2019-04-07 00:00:00 8 0 Calma 25 Sur 1.4 -- -- 85
2019-04-06 23:00:00 9.7 14 Sudoeste 28 Sudoeste 0.2 -- -- 64
2019-04-06 22:00:00 9.7 0 Calma 12 Sur 0 -- -- 63
2019-04-06 21:00:00 11 5 Sur 31 Sur 0 -- -- 49
2019-04-06 20:00:00 12.2 3 Sudoeste 17 Sudeste 0 -- -- 48
2019-04-06 19:00:00 13.5 6 Sudoeste 22 Sur 0 -- -- 41
2019-04-06 18:00:00 13.9 12 Sur 26 Sudeste 0 -- -- 40
2019-04-06 17:00:00 14 10 Sudeste 28 Sudoeste 0 -- -- 42
2019-04-06 16:00:00 15.6 11 Sudoeste 35 Sudoeste 0 -- -- 39
2019-04-06 15:00:00 14.8 12 Sur 30 Sudoeste 0.1 -- -- 40
2019-04-06 14:00:00 13.2 10 Sur 30 Sudoeste 0 -- -- 44
2019-04-06 13:00:00 13.5 15 Sudoeste 34 Sudoeste 0 -- -- 44
2019-04-06 12:00:00 11.6 13 Sudoeste 32 Sudoeste 0 -- -- 48
2019-04-06 11:00:00 10 2 Sudeste 6 Este 0 -- -- 75
2019-04-06 10:00:00 6.8 0 Calma 3 Sudeste 0 -- -- 89
2019-04-06 09:00:00 5.8 0 Calma 0 Calma 0 -- -- 96
2019-04-06 08:00:00 5.4 0 Calma 4 Sudeste 0 -- -- 95
2019-04-06 07:00:00 5.6 0 Calma 17 Sudoeste 2.4 -- -- 92
2019-04-06 06:00:00 6.2 6 Sudoeste 15 Oeste 1.7 -- -- 93
2019-04-06 05:00:00 6.3 0 Calma 4 Sur 0 -- -- 96
2019-04-06 04:00:00 6.4 0 Calma 3 Noroeste 0.1 -- -- 96
2019-04-06 03:00:00 6.5 0 Calma 4 Nordeste 0.2 -- -- 96
2019-04-06 02:00:00 6.5 3 Noroeste 5 Noroeste 0.1 -- -- 95
2019-04-06 01:00:00 6.6 0 Calma 3 Noroeste 0.4 -- -- 95
2019-04-06 00:00:00 6.7 0 Calma 5 Sudeste 1.4 -- -- 93
2019-04-05 23:00:00 6.7 2 Nordeste 9 Noroeste 2.3 -- -- 92
2019-04-05 22:00:00 7.2 2 Sudoeste 20 Noroeste 1.7 -- -- 89
2019-04-05 21:00:00 7.9 12 Noroeste 27 Noroeste 1.1 -- -- 83
2019-04-05 20:00:00 11.2 3 Norte 27 Sudoeste 0 -- -- 54
2019-04-05 19:00:00 13.2 11 Sur 23 Sur 0 -- -- 48
2019-04-05 18:00:00 13.9 5 Sudeste 15 Sudeste 0 -- -- 51
2019-04-05 17:00:00 13.6 3 Nordeste 22 Sudeste 0 -- -- 50
2019-04-05 16:00:00 12.8 12 Sur 37 Sur 0 -- -- 51
2019-04-05 15:00:00 12.5 10 Sudeste 33 Sur 0 -- -- 52
2019-04-05 14:00:00 12.3 9 Sur 30 Sur 0 -- -- 52
2019-04-05 13:00:00 11.8 13 Sur 32 Sudoeste 0 -- -- 52
2019-04-05 12:00:00 11.4 14 Sur 42 Sudoeste 0 -- -- 54
2019-04-05 11:00:00 10.5 14 Sur 38 Sudoeste 0 -- -- 54
2019-04-05 10:00:00 10.4 4 Este 26 Sudoeste 0 -- -- 52
2019-04-05 09:00:00 10.2 7 Sur 39 Sur 0 -- -- 52
2019-04-05 08:00:00 10.6 17 Sur 42 Sur 0 -- -- 46
2019-04-05 07:00:00 11.9 10 Sudoeste 31 Sudoeste 0 -- -- 39
2019-04-05 06:00:00 11.1 6 Sudeste 24 Sur 0 -- -- 41
2019-04-05 05:00:00 9.7 0 Calma 15 Sur 0 -- -- 45
2019-04-05 04:00:00 11.3 8 Sudoeste 20 Sudeste 0 -- -- 36
2019-04-05 03:00:00 11.1 8 Sur 30 Sudoeste 0 -- -- 37
2019-04-05 02:00:00 12.8 17 Sudoeste 41 Sudoeste 0 -- -- 35
2019-04-05 01:00:00 12.5 19 Sudoeste 39 Sur 0 -- -- 40
2019-04-05 00:00:00 11.1 0 Calma 14 Sudeste 0 -- -- 42
2019-04-04 23:00:00 11.3 6 Sudeste 14 Sudeste 0 -- -- 40
2019-04-04 22:00:00 11.3 2 Sur 14 Este 0 -- -- 41
2019-04-04 21:00:00 11.4 4 Sur 21 Sur 0 -- -- 40
2019-04-04 20:00:00 12.8 6 Sur 22 Sudoeste 0 -- -- 37
2019-04-04 19:00:00 14.1 8 Sur 19 Sur 0 -- -- 34
2019-04-04 18:00:00 14.4 8 Sur 22 Sur 0 -- -- 33
2019-04-04 17:00:00 14.5 6 Sudoeste 22 Sur 0 -- -- 36
2019-04-04 16:00:00 13.9 6 Sur 39 Sudoeste 0 -- -- 39
2019-04-04 15:00:00 12.1 5 Oeste 27 Sudoeste 0 -- -- 43
2019-04-04 14:00:00 10.7 5 Noroeste 27 Sudoeste 0 -- -- 50
2019-04-04 13:00:00 8.6 14 Sudoeste 25 Sudoeste 0 -- -- 52
2019-04-04 12:00:00 9 11 Sudoeste 24 Sudoeste 0 -- -- 52
2019-04-04 11:00:00 8.3 7 Sudoeste 14 Sur 0 -- -- 56
2019-04-04 10:00:00 6.6 2 Nordeste 6 Sudeste 0 -- -- 78
2019-04-04 09:00:00 3.3 0 Calma 5 Sudoeste 0 -- -- 96
2019-04-04 08:00:00 3 2 Sudeste 13 Sudoeste 0 -- -- 95
2019-04-04 07:00:00 3 5 Sur 13 Sur 0 -- -- 97
2019-04-04 06:00:00 2.8 0 Calma 6 Sudoeste 0 -- -- 96
2019-04-04 05:00:00 2.7 0 Calma 5 Noroeste 0.3 -- -- 96
2019-04-04 04:00:00 3.1 0 Calma 5 Sudeste 0 -- -- 96
2019-04-04 03:00:00 3.2 0 Calma 5 Nordeste 0 -- -- 95
2019-04-04 02:00:00 3.1 0 Calma 6 Este 0.8 -- -- 95
2019-04-04 01:00:00 3.1 3 Este 10 Sudeste 0.7 -- -- 93
2019-04-04 00:00:00 3.1 0 Calma 10 Sudoeste 1.1 -- -- 92
2019-04-03 23:00:00 3.5 0 Calma 18 Norte 0.6 -- -- 90
2019-04-03 22:00:00 4.3 0 Calma 24 Noroeste 0.4 -- -- 91
2019-04-03 21:00:00 6.1 3 Noroeste 10 Norte 0.2 -- -- 80
2019-04-03 20:00:00 6.3 0 Calma 6 Sudoeste 0 -- -- 79
2019-04-03 19:00:00 6.5 4 Sudoeste 25 Noroeste 0.6 -- -- 77
2019-04-03 18:00:00 8.3 10 Noroeste 24 Noroeste 0 -- -- 56
2019-04-03 17:00:00 8.8 3 Noroeste 24 Norte 0.4 -- -- 67
2019-04-03 16:00:00 7.4 8 Sudoeste 23 Noroeste 0.5 -- -- 76
2019-04-03 15:00:00 8.4 10 Nordeste 26 Noroeste 0 -- -- 64
2019-04-03 14:00:00 9.7 3 Nordeste 14 Norte 0 -- -- 61
2019-04-03 13:00:00 6.7 3 Noroeste 39 Norte 0.5 -- -- 79
2019-04-03 12:00:00 8.4 3 Noroeste 14 Noroeste 0 -- -- 69
2019-04-03 11:00:00 8.6 3 Norte 14 Sudoeste 0 -- -- 75
2019-04-03 10:00:00 6.9 3 Sudoeste 12 Noroeste 0.6 -- -- 86
2019-04-03 09:00:00 7 0 Calma 14 Oeste 0.6 -- -- 85
2019-04-03 08:00:00 7.3 3 Oeste 12 Sudoeste 0.1 -- -- 88
2019-04-03 07:00:00 7.2 3 Sur 7 Sudoeste 0 -- -- 93
2019-04-03 06:00:00 7.6 0 Calma 2 Sur 0.1 -- -- 94
2019-04-03 05:00:00 7.9 2 Noroeste 6 Noroeste 0 -- -- 92
2019-04-03 04:00:00 8 3 Sudoeste 8 Sudoeste 0.4 -- -- 92
2019-04-03 03:00:00 8.4 0 Calma 8 Oeste 0.1 -- -- 90
2019-04-03 02:00:00 8.7 2 Sudoeste 6 Oeste 0.3 -- -- 87
2019-04-03 01:00:00 9.1 2 Oeste 6 Noroeste 0.4 -- -- 91
2019-04-03 00:00:00 9.7 3 Sudoeste 5 Sudoeste 0.6 -- -- 92
2019-04-02 23:00:00 10.4 0 Calma 8 Sudoeste 0.3 -- -- 86
2019-04-02 22:00:00 11.1 0 Calma 5 Norte 0 -- -- 76
2019-04-02 21:00:00 11.6 0 Calma 7 Noroeste 0 -- -- 68
2019-04-02 20:00:00 12.3 0 Calma 13 Noroeste 0 -- -- 60
2019-04-02 19:00:00 12.8 5 Noroeste 20 Norte 0 -- -- 58
2019-04-02 18:00:00 13.6 8 Noroeste 19 Noroeste 0 -- -- 56
2019-04-02 17:00:00 14.2 12 Norte 24 Norte 0 -- -- 56
2019-04-02 16:00:00 15.3 11 Norte 21 Norte 0 -- -- 55
2019-04-02 15:00:00 15.7 7 Norte 17 Noroeste 0 -- -- 50
2019-04-02 14:00:00 15.5 10 Noroeste 20 Noroeste 0 -- -- 50
2019-04-02 13:00:00 14.8 6 Noroeste 21 Noroeste 0 -- -- 55
2019-04-02 12:00:00 13.2 10 Noroeste 24 Noroeste 0 -- -- 60
2019-04-02 11:00:00 13.3 0 Calma 6 Este 0 -- -- 78
2019-04-02 10:00:00 11 0 Calma 4 Norte 0 -- -- 96
2019-04-02 09:00:00 9.9 0 Calma -- -- 0 -- -- 96
2019-04-02 08:00:00 9.5 0 Calma 3 Noroeste 0 -- -- 96
2019-04-02 07:00:00 9.5 0 Calma 4 Norte 0 -- -- 96
2019-04-02 06:00:00 9.6 0 Calma 3 Norte 0 -- -- 96
2019-04-02 05:00:00 9.4 0 Calma 0 Calma 1.7 -- -- 96
2019-04-02 04:00:00 9.2 0 Calma -- -- 0 -- -- 97
2019-04-02 03:00:00 8.7 0 Calma 5 Noroeste 0 -- -- 96
2019-04-02 02:00:00 8 0 Calma 4 Sudoeste 0 -- -- 95
2019-04-02 01:00:00 8.9 0 Calma 2 Norte 0 -- -- 94
2019-04-02 00:00:00 9.9 0 Calma 5 Sur 0 -- -- 92
2019-04-01 23:00:00 11.4 0 Calma 4 Norte 0 -- -- 89
2019-04-01 22:00:00 12.6 0 Calma 4 Noroeste 0 -- -- 83
2019-04-01 21:00:00 13.7 0 Calma 6 Nordeste 0 -- -- 78
2019-04-01 20:00:00 15.2 0 Calma 3 Este 0 -- -- 70
2019-04-01 19:00:00 15.9 2 Este 5 Sudeste 0 -- -- 61
2019-04-01 18:00:00 15.9 0 Calma 8 Nordeste 0 -- -- 61
2019-04-01 17:00:00 15.7 0 Calma 5 Este 0 -- -- 63
2019-04-01 16:00:00 15 0 Calma 7 Sudeste 0 -- -- 68
2019-04-01 15:00:00 14.2 0 Calma 4 Nordeste 0 -- -- 69
2019-04-01 14:00:00 13.5 0 Calma 5 Nordeste 0 -- -- 71
2019-04-01 13:00:00 12.3 0 Calma 5 Noroeste 0 -- -- 83
2019-04-01 12:00:00 11.3 0 Calma 3 Noroeste 0 -- -- 85
2019-04-01 11:00:00 10.3 0 Calma 3 Nordeste 1.4 -- -- 93
2019-04-01 10:00:00 9.4 0 Calma 2 Noroeste 1.8 -- -- 96
2019-04-01 09:00:00 9.4 0 Calma 3 Este 0.6 -- -- 96
2019-04-01 08:00:00 8.9 0 Calma 3 Este 0.2 -- -- 95
2019-04-01 07:00:00 9 0 Calma 0 Calma 0.2 -- -- 96
2019-04-01 06:00:00 9.1 0 Calma 2 Nordeste 0.6 -- -- 95
2019-04-01 05:00:00 9.3 0 Calma 4 Sur 1.7 -- -- 95
2019-04-01 04:00:00 9.7 0 Calma 3 Sur 1 -- -- 93
2019-04-01 03:00:00 10.1 0 Calma 3 Nordeste 0.2 -- -- 89
2019-04-01 02:00:00 11.2 0 Calma 13 Sudoeste 0.3 -- -- 79
2019-04-01 01:00:00 13 7 Sudoeste 17 Sudoeste 0 -- -- 58
2019-04-01 00:00:00 12.8 3 Noroeste 9 Nordeste 0 -- -- 60
2019-03-31 23:00:00 12.9 2 Noroeste 6 Noroeste 0 -- -- 61
2019-03-31 22:00:00 12.4 0 Calma 6 Noroeste 0 -- -- 71
2019-03-31 21:00:00 14 0 Calma 4 Sudoeste 0 -- -- 62
2019-03-31 20:00:00 16.5 0 Calma 7 Este 0 -- -- 47
2019-03-31 19:00:00 17.8 3 Sudeste 10 Sudeste 0 -- -- 42
2019-03-31 18:00:00 18.5 4 Este 16 Nordeste 0 -- -- 36
2019-03-31 17:00:00 18.7 8 Norte 18 Norte 0 -- -- 34
2019-03-31 16:00:00 21.1 4 Oeste 14 Oeste 0 -- -- 31
2019-03-31 15:00:00 21.6 4 Sur 12 Sur 0 -- -- 30
2019-03-31 14:00:00 20.6 2 Nordeste 7 Sudeste 0 -- -- 31
2019-03-31 13:00:00 19.1 3 Noroeste 8 Norte 0 -- -- 35
2019-03-31 12:00:00 16.8 2 Este 6 Nordeste 0 -- -- 45
2019-03-31 11:00:00 12 0 Calma 5 Sudeste 0 -- -- 57
2019-03-31 10:00:00 8.3 0 Calma 4 Sudeste 0 -- -- 74
2019-03-31 09:00:00 3.6 0 Calma -- -- 0 -- -- 97
2019-03-31 08:00:00 1.2 0 Calma 4 Sur 0 -- -- 96
2019-03-31 07:00:00 1.4 0 Calma 3 Oeste 0 -- -- 95
2019-03-31 06:00:00 2.1 0 Calma 4 Sur 0 -- -- 95
2019-03-31 05:00:00 2.5 0 Calma 5 Sur 0 -- -- 94
2019-03-31 03:00:00 3.8 0 Calma 6 Sur 0 -- -- 92
2019-03-31 01:00:00 4.5 0 Calma 5 Sudeste 0 -- -- 88
2019-03-31 00:00:00 5.6 0 Calma 8 Sur 0 -- -- 87
2019-03-30 23:00:00 6.4 0 Calma 2 Nordeste 0 -- -- 82
2019-03-30 22:00:00 7.8 0 Calma 5 Sur 0 -- -- 76
2019-03-30 21:00:00 9.6 0 Calma 5 Sudoeste 0 -- -- 64
2019-03-30 20:00:00 13.2 2 Sur 7 Sur 0 -- -- 50
2019-03-30 19:00:00 18.5 3 Oeste 12 Oeste 0 -- -- 35
2019-03-30 18:00:00 20.4 6 Sudoeste 18 Sudoeste 0 -- -- 31
2019-03-30 17:00:00 20.6 8 Oeste 21 Sudoeste 0 -- -- 31
2019-03-30 16:00:00 20.9 10 Sudoeste 21 Sudoeste 0 -- -- 32
2019-03-30 15:00:00 21.5 6 Sur 23 Sudoeste 0 -- -- 33
2019-03-30 14:00:00 20.8 11 Sur 25 Sudeste 0 -- -- 35
2019-03-30 13:00:00 19.7 9 Sur 24 Sudeste 0 -- -- 35
2019-03-30 12:00:00 19 11 Sur 29 Sur 0 -- -- 37
2019-03-30 11:00:00 17.4 13 Sur 31 Sur 0 -- -- 39
2019-03-30 10:00:00 15.6 7 Sur 17 Sudoeste 0 -- -- 41
2019-03-30 09:00:00 14.6 3 Norte 18 Sur 0 -- -- 44
2019-03-30 08:00:00 12.3 4 Norte 22 Sur 0 -- -- 47
2019-03-30 07:00:00 10.6 2 Sudoeste 25 Sudoeste 0 -- -- 49
2019-03-30 06:00:00 11.2 5 Sur 26 Sudoeste 0 -- -- 48
2019-03-30 05:00:00 13 3 Noroeste 18 Noroeste 0 -- -- 45
2019-03-30 04:00:00 12.2 2 Noroeste 23 Nordeste 0 -- -- 48
2019-03-30 03:00:00 11.2 0 Calma 21 Sudeste 0 -- -- 50
2019-03-30 02:00:00 11.2 3 Este 27 Sudoeste 0 -- -- 50
2019-03-30 01:00:00 13.8 11 Norte 25 Noroeste 0 -- -- 44
2019-03-30 00:00:00 14.5 5 Sudoeste 27 Sudoeste 0 -- -- 43
2019-03-29 23:00:00 10.7 2 Norte 13 Noroeste 0 -- -- 52
2019-03-29 22:00:00 10 3 Este 14 Norte 0 -- -- 56
2019-03-29 21:00:00 10.7 0 Calma 9 Sudeste 0 -- -- 52
2019-03-29 20:00:00 12.7 3 Sudoeste 10 Sur 0 -- -- 46
2019-03-29 19:00:00 17.1 6 Sudoeste 21 Sudoeste 0 -- -- 30
2019-03-29 18:00:00 19.6 7 Sur 27 Sudoeste 0 -- -- 27
2019-03-29 17:00:00 20.7 10 Sur 25 Sur 0 -- -- 25
2019-03-29 16:00:00 21.2 10 Sur 32 Sudeste 0 -- -- 26
2019-03-29 15:00:00 20.7 14 Sur 36 Sur 0 -- -- 27
2019-03-29 14:00:00 20.1 13 Sur 31 Sur 0 -- -- 30
2019-03-29 13:00:00 19.7 17 Sur 37 Sudoeste 0 -- -- 30
2019-03-29 12:00:00 18.4 13 Sur 35 Sur 0 -- -- 32
2019-03-29 11:00:00 15.8 4 Sudeste 12 Sudeste 0 -- -- 48
2019-03-29 10:00:00 9.4 2 Sudeste 15 Norte 0 -- -- 71
2019-03-29 09:00:00 5.2 0 Calma 9 Sudeste 0 -- -- 88
2019-03-29 08:00:00 0.9 0 Calma 5 Oeste 0 -- -- 97
2019-03-29 07:00:00 -0.7 0 Calma 4 Sur 0 -- -- 97
2019-03-29 06:00:00 -0.2 0 Calma 3 Este 0 -- -- 97
2019-03-29 05:00:00 -0.1 0 Calma 2 Sudoeste 0 -- -- 97
2019-03-29 04:00:00 0.2 0 Calma -- -- 0 -- -- 96
2019-03-29 03:00:00 0.8 0 Calma -- -- 0 -- -- 96
2019-03-29 02:00:00 1.2 0 Calma -- -- 0 -- -- 95
2019-03-29 01:00:00 1.9 0 Calma 2 Noroeste 0 -- -- 94
2019-03-29 00:00:00 2.4 0 Calma 3 Sur 0 -- -- 92
2019-03-28 23:00:00 3.5 0 Calma 3 Sudoeste 0 -- -- 89
2019-03-28 22:00:00 4.4 0 Calma 4 Sudoeste 0 -- -- 85
2019-03-28 21:00:00 6.9 0 Calma 6 Sur 0 -- -- 77
2019-03-28 20:00:00 8.9 0 Calma 9 Este 0 -- -- 67
2019-03-28 19:00:00 11.9 4 Este 16 Nordeste 0 -- -- 51
2019-03-28 18:00:00 14.1 7 Norte 19 Norte 0 -- -- 41
2019-03-28 17:00:00 15.1 12 Norte 26 Norte 0 -- -- 38
2019-03-28 16:00:00 16.2 12 Noroeste 28 Noroeste 0 -- -- 39
2019-03-28 15:00:00 16.1 13 Norte 23 Norte 0 -- -- 41
2019-03-28 14:00:00 16.5 10 Norte 24 Norte 0 -- -- 43
2019-03-28 13:00:00 15.8 11 Noroeste 22 Norte 0 -- -- 44
2019-03-28 12:00:00 15.2 2 Oeste 9 Noroeste 0 -- -- 47
2019-03-28 11:00:00 12.8 2 Sudeste 5 Sudeste 0 -- -- 60
2019-03-28 10:00:00 7.5 0 Calma 4 Sudeste 0 -- -- 77
2019-03-28 09:00:00 3.7 0 Calma 3 Sur 0 -- -- 88
2019-03-28 08:00:00 0.1 0 Calma 2 Sudoeste 0 -- -- 97
2019-03-28 07:00:00 -1 0 Calma 3 Sudoeste 0 -- -- 97
2019-03-28 06:00:00 -0.8 0 Calma 3 Sur 0 -- -- 97
2019-03-28 05:00:00 -0.4 2 Sudoeste 4 Norte 0 -- -- 97
2019-03-28 04:00:00 -0.2 0 Calma 2 Sur 0 -- -- 96
2019-03-28 03:00:00 0.4 0 Calma 0 Calma 0 -- -- 96
2019-03-28 02:00:00 0.8 0 Calma 2 Sur 0 -- -- 95
2019-03-28 01:00:00 1.3 0 Calma 2 Noroeste 0 -- -- 93
2019-03-28 00:00:00 2 0 Calma -- -- 0 -- -- 92
2019-03-27 23:00:00 2.8 0 Calma -- -- 0 -- -- 89
2019-03-27 22:00:00 3.8 0 Calma 0 Calma 0 -- -- 83
2019-03-27 21:00:00 5.8 2 Sudoeste 6 Sur 0 -- -- 75
2019-03-27 20:00:00 8.1 0 Calma 15 Norte 0 -- -- 59
2019-03-27 19:00:00 10.1 7 Noroeste 21 Norte 0 -- -- 55
2019-03-27 18:00:00 11.9 11 Norte 32 Noroeste 0 -- -- 47
2019-03-27 17:00:00 12.9 15 Norte 30 Norte 0 -- -- 42
2019-03-27 16:00:00 15 12 Norte 24 Norte 0 -- -- 37
2019-03-27 15:00:00 16 12 Norte 23 Norte 0 -- -- 35
2019-03-27 14:00:00 16.1 8 Norte 21 Noroeste 0 -- -- 32
2019-03-27 13:00:00 15.3 5 Norte 13 Norte 0 -- -- 33
2019-03-27 12:00:00 14.1 2 Sudoeste 7 Noroeste 0 -- -- 35
2019-03-27 11:00:00 12.5 3 Sur 7 Sudeste 0 -- -- 45
2019-03-27 10:00:00 8.5 0 Calma 4 Sudeste 0 -- -- 58
2019-03-27 09:00:00 4.6 0 Calma 3 Este 0 -- -- 79
2019-03-27 08:00:00 -0.2 0 Calma 3 Sur 0 -- -- 97
2019-03-27 07:00:00 -1.4 0 Calma 3 Sur 0 -- -- 97
2019-03-27 06:00:00 -1 0 Calma 4 Sur 0 -- -- 97
2019-03-27 05:00:00 -0.5 0 Calma 6 Sudoeste 0 -- -- 97
2019-03-27 04:00:00 0 0 Calma 5 Nordeste 0 -- -- 97
2019-03-27 03:00:00 0 0 Calma 5 Noroeste 0 -- -- 97
2019-03-27 02:00:00 0.6 0 Calma 3 Norte 0 -- -- 96
2019-03-27 01:00:00 1.2 0 Calma 3 Sudeste 0 -- -- 96
2019-03-27 00:00:00 1.8 0 Calma 4 Sur 0 -- -- 94